Time;durP1;ratioP1;P1;durP2;ratioP2;P2;SDS_P1;SDS_P2;PMS_P1;PMS_P2;Temp;Humidity;BMP_temperature;BMP_pressure;BME280_temperature;BME280_humidity;BME280_pressure;Samples;Min_cycle;Max_cycle;Signal;HPM_P1;HPM_P2
2024/02/11 00:00:32;;;;;;;8.70;7.47;;;11.60;94.00;;;;;;5070933;28;20052;-37
2024/02/11 00:02:58;;;;;;;8.57;7.22;;;11.60;94.00;;;;;;5071468;28;20044;-36
2024/02/11 00:05:27;;;;;;;7.97;7.18;;;11.60;93.90;;;;;;5071369;28;20111;-37
2024/02/11 00:07:53;;;;;;;8.52;7.50;;;11.60;93.90;;;;;;5071247;28;20388;-37
2024/02/11 00:10:19;;;;;;;10.18;7.38;;;11.60;93.90;;;;;;5070993;28;20035;-42
2024/02/11 00:12:45;;;;;;;8.00;6.63;;;11.60;93.90;;;;;;5071396;28;20397;-42
2024/02/11 00:15:11;;;;;;;7.68;6.88;;;11.60;94.00;;;;;;5071315;28;20024;-37
2024/02/11 00:17:37;;;;;;;9.23;7.55;;;11.60;94.00;;;;;;5072835;28;20477;-39
2024/02/11 00:20:09;;;;;;;7.40;6.70;;;11.60;94.00;;;;;;5075223;28;20020;-36
2024/02/11 00:22:35;;;;;;;8.32;7.25;;;11.60;94.00;;;;;;5074770;28;20028;-39
2024/02/11 00:25:01;;;;;;;7.00;6.30;;;11.60;93.90;;;;;;5074977;28;20028;-35
2024/02/11 00:27:27;;;;;;;7.32;6.63;;;11.60;93.90;;;;;;5074584;28;20055;-39
2024/02/11 00:29:52;;;;;;;7.68;6.68;;;11.60;93.90;;;;;;5074654;28;20024;-36
2024/02/11 00:32:18;;;;;;;7.43;6.72;;;11.60;93.90;;;;;;5074749;28;20441;-37
2024/02/11 00:34:44;;;;;;;7.30;6.55;;;11.60;94.00;;;;;;5074633;28;20040;-39
2024/02/11 00:37:12;;;;;;;7.70;6.90;;;11.60;93.90;;;;;;5074718;28;20366;-35
2024/02/11 00:39:38;;;;;;;7.03;6.32;;;11.60;94.00;;;;;;5074357;28;20020;-38
2024/02/11 00:42:04;;;;;;;7.32;6.50;;;11.60;93.90;;;;;;5074387;28;20074;-38
2024/02/11 00:44:34;;;;;;;7.45;6.65;;;11.60;93.90;;;;;;5073996;28;20044;-37
2024/02/11 00:47:01;;;;;;;8.00;7.05;;;11.60;93.90;;;;;;5074362;28;20029;-38
2024/02/11 00:49:31;;;;;;;7.07;5.97;;;11.60;93.90;;;;;;5072835;28;20029;-38
2024/02/11 00:51:57;;;;;;;7.50;6.70;;;11.60;93.90;;;;;;5074549;28;20503;-38
2024/02/11 00:54:22;;;;;;;7.90;7.10;;;11.60;93.90;;;;;;5074252;28;20013;-37
2024/02/11 00:56:54;;;;;;;7.43;6.72;;;11.60;93.90;;;;;;5074160;28;20051;-38
2024/02/11 00:59:20;;;;;;;7.00;6.30;;;11.60;94.00;;;;;;5074151;28;20036;-36
2024/02/11 01:01:45;;;;;;;7.70;6.90;;;11.60;94.00;;;;;;5074280;28;20434;-39
2024/02/11 01:04:11;;;;;;;8.23;7.00;;;11.60;94.00;;;;;;5074251;28;20021;-39
2024/02/11 01:06:37;;;;;;;7.40;6.47;;;11.60;94.00;;;;;;5074080;28;20078;-39
2024/02/11 01:09:03;;;;;;;9.25;8.15;;;11.60;94.00;;;;;;5074265;28;20027;-36
2024/02/11 01:11:29;;;;;;;8.85;7.20;;;11.60;94.00;;;;;;5073733;28;20059;-36
2024/02/11 01:13:55;;;;;;;8.65;7.13;;;11.60;94.00;;;;;;5074438;28;20059;-38
2024/02/11 01:16:21;;;;;;;8.05;7.25;;;11.60;94.00;;;;;;5073736;28;20031;-36
2024/02/11 01:18:46;;;;;;;7.75;6.95;;;11.60;94.00;;;;;;5073579;28;20638;-40
2024/02/11 01:21:12;;;;;;;8.38;7.47;;;11.60;94.00;;;;;;5074128;28;20097;-36
2024/02/11 01:23:38;;;;;;;10.25;9.07;;;11.60;94.00;;;;;;5072166;28;20036;-38
2024/02/11 01:26:04;;;;;;;8.18;7.28;;;11.50;94.00;;;;;;5073603;28;20074;-36
2024/02/11 01:28:30;;;;;;;8.55;7.18;;;11.50;94.00;;;;;;5071356;28;20063;-34
2024/02/11 01:30:57;;;;;;;8.13;7.13;;;11.60;94.00;;;;;;5073541;28;20060;-37
2024/02/11 01:33:23;;;;;;;7.82;6.78;;;11.50;94.00;;;;;;5073569;28;20025;-37
2024/02/11 01:35:49;;;;;;;9.23;7.05;;;11.50;94.00;;;;;;5073047;28;20052;-37
2024/02/11 01:38:14;;;;;;;7.38;6.68;;;11.50;94.00;;;;;;5073356;28;20025;-36
2024/02/11 01:40:43;;;;;;;8.38;7.07;;;11.50;94.00;;;;;;5073297;28;20021;-38
2024/02/11 01:43:09;;;;;;;7.35;6.65;;;11.50;94.00;;;;;;5073696;28;20083;-37
2024/02/11 01:45:36;;;;;;;7.90;7.18;;;11.50;94.00;;;;;;5071750;28;20079;-38
2024/02/11 01:48:07;;;;;;;8.10;7.25;;;11.50;94.00;;;;;;5073543;28;20082;-38
2024/02/11 01:50:39;;;;;;;8.23;7.35;;;11.50;94.00;;;;;;5073244;28;20473;-37
2024/02/11 01:53:06;;;;;;;8.55;7.30;;;11.50;94.00;;;;;;5073136;28;20111;-37
2024/02/11 01:55:33;;;;;;;8.30;7.50;;;11.40;94.10;;;;;;5073079;28;20545;-35
2024/02/11 01:57:59;;;;;;;8.32;7.18;;;11.40;94.10;;;;;;5072901;28;20048;-38
2024/02/11 02:00:25;;;;;;;10.63;7.45;;;11.40;94.10;;;;;;5072677;28;20021;-37
2024/02/11 02:02:54;;;;;;;10.05;8.38;;;11.40;94.10;;;;;;5072907;28;20021;-37
2024/02/11 02:05:20;;;;;;;10.00;8.52;;;11.40;94.10;;;;;;5071378;28;20492;-37
2024/02/11 02:07:46;;;;;;;8.73;7.82;;;11.40;94.10;;;;;;5072676;28;20074;-38
2024/02/11 02:10:12;;;;;;;8.52;7.18;;;11.40;94.10;;;;;;5072689;28;20043;-38
2024/02/11 02:12:38;;;;;;;8.23;7.43;;;11.40;94.20;;;;;;5072617;28;20032;-38
2024/02/11 02:15:05;;;;;;;8.70;7.80;;;11.30;94.10;;;;;;5072798;28;20037;-37
2024/02/11 02:17:31;;;;;;;8.27;7.47;;;11.30;94.10;;;;;;5072276;28;20029;-35
2024/02/11 02:19:56;;;;;;;7.78;6.97;;;11.30;94.10;;;;;;5072669;28;20034;-38
2024/02/11 02:22:22;;;;;;;7.78;6.97;;;11.30;94.10;;;;;;5072499;28;20021;-35
2024/02/11 02:24:51;;;;;;;8.98;8.07;;;11.30;94.10;;;;;;5072563;28;20028;-38
2024/02/11 02:27:17;;;;;;;8.05;7.25;;;11.30;94.10;;;;;;5072492;28;20025;-38
2024/02/11 02:29:44;;;;;;;8.48;7.57;;;11.30;94.10;;;;;;5072498;28;20013;-35
2024/02/11 02:32:13;;;;;;;8.07;7.25;;;11.30;94.10;;;;;;5072237;28;20420;-35
2024/02/11 02:34:40;;;;;;;9.25;8.10;;;11.20;94.10;;;;;;5072234;28;20063;-38
2024/02/11 02:37:06;;;;;;;8.45;7.55;;;11.20;94.10;;;;;;5072397;28;20495;-38
2024/02/11 02:39:32;;;;;;;9.07;8.18;;;11.20;94.10;;;;;;5072346;28;20025;-38
2024/02/11 02:41:58;;;;;;;9.35;7.25;;;11.30;94.20;;;;;;5071265;28;20404;-38
2024/02/11 02:44:24;;;;;;;9.23;7.93;;;11.30;94.10;;;;;;5071983;28;20020;-37
2024/02/11 02:46:49;;;;;;;9.35;7.75;;;11.30;94.20;;;;;;5071979;28;20036;-36
2024/02/11 02:49:15;;;;;;;8.05;7.25;;;11.20;94.10;;;;;;5071772;28;20024;-36
2024/02/11 02:51:40;;;;;;;9.07;7.60;;;11.30;94.10;;;;;;5072109;28;20032;-36
2024/02/11 02:54:06;;;;;;;8.45;7.57;;;11.20;94.20;;;;;;5071822;28;20059;-37
2024/02/11 02:56:34;;;;;;;8.10;7.30;;;11.30;94.20;;;;;;5071963;28;20021;-37
2024/02/11 02:59:08;;;;;;;8.15;7.22;;;11.30;94.10;;;;;;5071937;28;20051;-38
2024/02/11 03:01:38;;;;;;;8.13;7.20;;;11.30;94.10;;;;;;5071459;28;20055;-36
2024/02/11 03:04:04;;;;;;;8.23;7.32;;;11.30;94.10;;;;;;5070386;28;20056;-37
2024/02/11 03:06:30;;;;;;;8.35;7.55;;;11.30;94.10;;;;;;5071848;28;20028;-37
2024/02/11 03:08:56;;;;;;;7.93;7.15;;;11.30;94.10;;;;;;5071491;28;20044;-38
2024/02/11 03:11:22;;;;;;;8.15;7.35;;;11.30;94.10;;;;;;5071730;28;20389;-37
2024/02/11 03:13:47;;;;;;;9.45;8.05;;;11.30;94.10;;;;;;5072003;28;20032;-38
2024/02/11 03:16:15;;;;;;;8.57;7.57;;;11.30;94.10;;;;;;5072002;28;20032;-38
2024/02/11 03:18:42;;;;;;;8.40;7.50;;;11.30;94.10;;;;;;5071437;28;20035;-47
2024/02/11 03:21:11;;;;;;;7.50;6.80;;;11.30;94.10;;;;;;5071414;28;20029;-38
2024/02/11 03:23:37;;;;;;;8.32;7.53;;;11.30;94.10;;;;;;5071539;28;20060;-37
2024/02/11 03:26:09;;;;;;;8.15;7.40;;;11.30;94.10;;;;;;5071706;28;20074;-39
2024/02/11 03:28:38;;;;;;;8.32;7.53;;;11.30;94.10;;;;;;5071383;28;20113;-37
2024/02/11 03:31:05;;;;;;;8.40;7.55;;;11.30;94.10;;;;;;5071441;28;20146;-38
2024/02/11 03:33:31;;;;;;;8.10;7.30;;;11.30;94.10;;;;;;5071590;28;20025;-36
2024/02/11 03:35:57;;;;;;;8.35;7.55;;;11.30;94.10;;;;;;5071144;28;20044;-36
2024/02/11 03:38:25;;;;;;;8.88;7.97;;;11.30;94.10;;;;;;5071301;28;20481;-37
2024/02/11 03:40:55;;;;;;;10.18;7.55;;;11.30;94.10;;;;;;5071192;28;20074;-36
2024/02/11 03:43:21;;;;;;;8.93;8.02;;;11.20;94.10;;;;;;5071165;28;20039;-37
2024/02/11 03:45:47;;;;;;;8.63;7.72;;;11.30;94.10;;;;;;5071590;28;20109;-38
2024/02/11 03:48:18;;;;;;;8.85;7.95;;;11.20;94.10;;;;;;5071296;28;20370;-39
2024/02/11 03:50:45;;;;;;;9.73;7.85;;;11.20;94.10;;;;;;5070004;28;20074;-37
2024/02/11 03:53:12;;;;;;;11.27;7.97;;;11.20;94.10;;;;;;5074571;28;20052;-39
2024/02/11 03:55:37;;;;;;;8.20;7.40;;;11.20;94.10;;;;;;5075292;28;20056;-37
2024/02/11 03:58:04;;;;;;;9.15;8.10;;;11.20;94.10;;;;;;5075260;28;20052;-39
2024/02/11 04:00:31;;;;;;;9.02;8.13;;;11.20;94.10;;;;;;5075548;28;20460;-36
2024/02/11 04:03:00;;;;;;;8.77;7.88;;;11.20;94.10;;;;;;5075480;28;20024;-38
2024/02/11 04:05:28;;;;;;;8.88;7.97;;;11.20;94.10;;;;;;5075081;28;20415;-37
2024/02/11 04:07:55;;;;;;;9.07;7.95;;;11.20;94.10;;;;;;5075261;28;20039;-36
2024/02/11 04:10:28;;;;;;;11.45;7.85;;;11.20;94.10;;;;;;5075085;28;20174;-41
2024/02/11 04:12:54;;;;;;;9.05;7.82;;;11.20;94.10;;;;;;5075028;28;20392;-37
2024/02/11 04:15:22;;;;;;;9.45;8.50;;;11.10;94.10;;;;;;5074854;28;20082;-36
2024/02/11 04:17:53;;;;;;;8.18;7.38;;;11.10;94.10;;;;;;5075039;28;20021;-37
2024/02/11 04:20:29;;;;;;;10.27;7.95;;;11.20;94.10;;;;;;5074934;28;20029;-36
2024/02/11 04:23:00;;;;;;;8.60;7.53;;;11.10;94.10;;;;;;5074888;28;20029;-36
2024/02/11 04:25:30;;;;;;;8.27;7.47;;;11.10;94.20;;;;;;5075077;28;20036;-37
2024/02/11 04:27:56;;;;;;;8.35;7.55;;;11.10;94.10;;;;;;5074869;28;20024;-38
2024/02/11 04:30:21;;;;;;;8.88;7.97;;;11.10;94.20;;;;;;5074820;28;20441;-39
2024/02/11 04:32:48;;;;;;;9.25;8.35;;;11.10;94.20;;;;;;5074510;28;20040;-37
2024/02/11 04:35:17;;;;;;;9.15;8.25;;;11.10;94.20;;;;;;5074497;28;20519;-38
2024/02/11 04:37:46;;;;;;;8.70;7.68;;;11.10;94.20;;;;;;5074801;28;20111;-37
2024/02/11 04:40:13;;;;;;;9.25;8.35;;;11.10;94.20;;;;;;5074781;28;20051;-39
2024/02/11 04:42:56;;;;;;;8.93;8.02;;;11.10;94.20;;;;;;5074456;28;20035;-37
2024/02/11 04:45:25;;;;;;;11.00;8.90;;;11.10;94.20;;;;;;5074482;28;20033;-37
2024/02/11 04:48:03;;;;;;;8.98;8.07;;;11.10;94.20;;;;;;5074153;28;20068;-38
2024/02/11 04:50:30;;;;;;;9.75;8.40;;;11.10;94.20;;;;;;5074640;28;20451;-37
2024/02/11 04:53:01;;;;;;;9.18;8.20;;;11.10;94.20;;;;;;5072928;28;20028;-37
2024/02/11 04:55:28;;;;;;;10.10;8.70;;;11.10;94.20;;;;;;5072799;28;20040;-36
2024/02/11 04:58:00;;;;;;;9.18;8.27;;;11.10;94.20;;;;;;5074146;28;20021;-38
2024/02/11 05:00:33;;;;;;;10.02;9.02;;;11.10;94.30;;;;;;5074305;28;20024;-38
2024/02/11 05:03:03;;;;;;;10.48;9.20;;;11.10;94.30;;;;;;5073900;28;20059;-36
2024/02/11 05:05:30;;;;;;;12.52;8.90;;;11.10;94.30;;;;;;5073748;28;20068;-37
2024/02/11 05:07:57;;;;;;;9.98;8.68;;;11.10;94.30;;;;;;5074177;28;20063;-34
2024/02/11 05:10:27;;;;;;;9.13;8.23;;;11.10;94.30;;;;;;5073919;28;20451;-38
2024/02/11 05:12:54;;;;;;;9.50;8.50;;;11.10;94.30;;;;;;5074325;28;20036;-36
2024/02/11 05:15:20;;;;;;;10.55;9.35;;;11.10;94.20;;;;;;5074070;28;20052;-37
2024/02/11 05:17:49;;;;;;;10.05;8.43;;;11.10;94.20;;;;;;5073659;28;20543;-37
2024/02/11 05:20:23;;;;;;;11.52;9.43;;;11.10;94.20;;;;;;5073670;28;20016;-40
2024/02/11 05:22:55;;;;;;;10.38;9.27;;;11.10;94.20;;;;;;5074087;28;20551;-58
2024/02/11 05:25:25;;;;;;;9.23;8.20;;;11.10;94.20;;;;;;5073613;28;20077;-38
2024/02/11 05:27:57;;;;;;;10.45;9.43;;;11.10;94.20;;;;;;5073462;28;20035;-38
2024/02/11 05:30:37;;;;;;;13.18;9.35;;;11.10;94.20;;;;;;5073971;28;20305;-38
2024/02/11 05:33:04;;;;;;;10.88;9.15;;;11.20;94.20;;;;;;5073678;28;20060;-46
2024/02/11 05:35:39;;;;;;;11.02;9.65;;;11.10;94.20;;;;;;5073220;28;20044;-38
2024/02/11 05:38:08;;;;;;;9.10;8.20;;;11.10;94.20;;;;;;5073234;28;20048;-40
2024/02/11 05:40:36;;;;;;;11.18;9.48;;;11.10;94.10;;;;;;5073148;28;20104;-38
2024/02/11 05:43:04;;;;;;;10.18;9.15;;;11.10;94.10;;;;;;5073586;28;20446;-38
2024/02/11 05:45:30;;;;;;;10.27;9.15;;;11.10;94.10;;;;;;5073163;28;20047;-38
2024/02/11 05:47:56;;;;;;;10.50;9.48;;;11.10;94.10;;;;;;5073531;28;20025;-37
2024/02/11 05:50:22;;;;;;;10.52;9.43;;;11.10;94.10;;;;;;5073584;28;20028;-38
2024/02/11 05:52:50;;;;;;;10.73;9.63;;;11.10;94.10;;;;;;5073181;28;20032;-38
2024/02/11 05:55:18;;;;;;;10.38;9.38;;;11.10;94.10;;;;;;5073225;28;20077;-37
2024/02/11 05:57:49;;;;;;;10.65;9.40;;;11.20;94.10;;;;;;5073156;28;20033;-38
2024/02/11 06:00:19;;;;;;;10.93;9.00;;;11.20;94.20;;;;;;5073417;28;20020;-38
2024/02/11 06:02:47;;;;;;;11.27;10.07;;;11.20;94.10;;;;;;5072931;28;20481;-39
2024/02/11 06:05:14;;;;;;;10.60;9.32;;;11.20;94.10;;;;;;5071533;28;20032;-38
2024/02/11 06:07:50;;;;;;;10.45;9.35;;;11.20;94.20;;;;;;5072616;28;20071;-37
2024/02/11 06:10:17;;;;;;;10.38;9.10;;;11.20;94.10;;;;;;5073176;28;20028;-36
2024/02/11 06:12:45;;;;;;;10.95;9.43;;;11.20;94.10;;;;;;5073357;28;20564;-37
2024/02/11 06:15:13;;;;;;;10.95;9.85;;;11.30;94.10;;;;;;5072725;28;20060;-38
2024/02/11 06:17:40;;;;;;;10.57;9.48;;;11.30;94.10;;;;;;5072656;28;20493;-37
2024/02/11 06:20:11;;;;;;;10.45;9.23;;;11.30;94.10;;;;;;5072743;28;20100;-37
2024/02/11 06:22:37;;;;;;;11.63;9.23;;;11.20;94.10;;;;;;5071299;28;20059;-37
2024/02/11 06:25:03;;;;;;;11.52;10.10;;;11.20;94.10;;;;;;5072950;28;20040;-38
2024/02/11 06:27:29;;;;;;;11.00;9.57;;;11.30;94.10;;;;;;5072647;28;20365;-37
2024/02/11 06:29:54;;;;;;;11.50;10.27;;;11.30;94.10;;;;;;5071200;28;20025;-39
2024/02/11 06:32:20;;;;;;;13.10;10.05;;;11.30;94.10;;;;;;5072254;28;20028;-37
2024/02/11 06:34:45;;;;;;;13.25;10.77;;;11.20;94.10;;;;;;5072418;28;20401;-37
2024/02/11 06:37:11;;;;;;;12.65;10.40;;;11.30;94.10;;;;;;5072221;28;20032;-35
2024/02/11 06:39:40;;;;;;;13.85;10.55;;;11.30;94.10;;;;;;5072164;28;20032;-36
2024/02/11 06:42:09;;;;;;;12.25;10.40;;;11.20;94.10;;;;;;5072259;28;20477;-37
2024/02/11 06:44:38;;;;;;;12.90;10.02;;;11.30;94.10;;;;;;5072059;28;20032;-37
2024/02/11 06:47:08;;;;;;;11.15;9.73;;;11.30;94.10;;;;;;5072083;28;20035;-37
2024/02/11 06:49:35;;;;;;;11.30;8.82;;;11.20;94.10;;;;;;5072039;28;20040;-37
2024/02/11 06:52:01;;;;;;;7.70;6.90;;;11.20;93.90;;;;;;5071825;28;20031;-37
2024/02/11 06:54:27;;;;;;;7.13;6.22;;;11.10;93.70;;;;;;5072049;28;20167;-35
2024/02/11 06:56:53;;;;;;;5.60;5.00;;;11.00;93.80;;;;;;5071915;28;20191;-38
2024/02/11 06:59:19;;;;;;;5.78;5.13;;;10.80;93.80;;;;;;5071854;28;20021;-37
2024/02/11 07:01:45;;;;;;;7.82;5.93;;;10.70;93.90;;;;;;5072105;28;20027;-40
2024/02/11 07:04:12;;;;;;;5.30;4.57;;;10.60;94.10;;;;;;5071936;28;20469;-38
2024/02/11 07:06:47;;;;;;;5.65;4.57;;;10.50;94.20;;;;;;5072003;28;20056;-36
2024/02/11 07:09:13;;;;;;;6.05;5.20;;;10.40;94.30;;;;;;5071918;28;20024;-39
2024/02/11 07:11:39;;;;;;;7.68;5.93;;;10.40;94.30;;;;;;5072025;28;20074;-35
2024/02/11 07:14:06;;;;;;;9.00;7.72;;;10.30;94.30;;;;;;5072054;28;20029;-37
2024/02/11 07:16:33;;;;;;;11.45;8.43;;;10.30;94.40;;;;;;5071485;28;20024;-37
2024/02/11 07:18:58;;;;;;;9.07;7.90;;;10.20;94.50;;;;;;5071628;28;20100;-37
2024/02/11 07:21:24;;;;;;;11.20;8.57;;;10.10;94.50;;;;;;5072209;28;20047;-37
2024/02/11 07:23:49;;;;;;;10.73;9.23;;;10.10;94.50;;;;;;5071974;28;20027;-36
2024/02/11 07:26:16;;;;;;;10.27;8.73;;;10.10;94.60;;;;;;5071293;28;20029;-38
2024/02/11 07:28:42;;;;;;;12.30;9.43;;;10.10;94.60;;;;;;5071348;28;20020;-38
2024/02/11 07:31:08;;;;;;;12.68;9.77;;;10.00;94.60;;;;;;5071511;28;20307;-36
2024/02/11 07:33:33;;;;;;;13.60;10.48;;;10.00;94.60;;;;;;5071439;28;20036;-36
2024/02/11 07:35:59;;;;;;;18.23;11.55;;;9.90;94.60;;;;;;5071202;28;20043;-37
2024/02/11 07:38:26;;;;;;;13.90;10.25;;;9.80;94.50;;;;;;5071319;28;20017;-37
2024/02/11 07:40:53;;;;;;;13.07;10.02;;;9.80;94.60;;;;;;5071546;28;20263;-37
2024/02/11 07:43:22;;;;;;;16.30;10.40;;;9.70;94.60;;;;;;5071462;28;20016;-37
2024/02/11 07:45:48;;;;;;;15.55;10.50;;;9.70;94.70;;;;;;5071513;28;20098;-46
2024/02/11 07:48:14;;;;;;;13.60;10.18;;;9.70;94.70;;;;;;5071278;28;20491;-38
2024/02/11 07:50:39;;;;;;;14.80;10.40;;;9.70;94.70;;;;;;5071342;28;20074;-37
2024/02/11 07:53:05;;;;;;;17.48;10.18;;;9.80;94.70;;;;;;5070034;28;20469;-39
2024/02/11 07:55:31;;;;;;;19.20;10.90;;;9.80;94.70;;;;;;5071328;28;20488;-39
2024/02/11 07:58:01;;;;;;;15.85;10.57;;;9.70;94.50;;;;;;5071434;28;20021;-36
2024/02/11 08:00:31;;;;;;;14.98;10.20;;;9.80;94.60;;;;;;5071162;28;20510;-36
2024/02/11 08:02:57;;;;;;;15.35;10.85;;;9.80;94.60;;;;;;5071232;28;20013;-39
2024/02/11 08:05:23;;;;;;;15.63;9.95;;;9.80;94.60;;;;;;5071481;28;20118;-38
2024/02/11 08:07:49;;;;;;;18.08;9.80;;;9.70;94.60;;;;;;5071033;28;20104;-35
2024/02/11 08:10:15;;;;;;;16.60;9.43;;;9.80;94.60;;;;;;5071249;28;20145;-37
2024/02/11 08:12:40;;;;;;;18.63;10.68;;;9.80;94.60;;;;;;5070958;28;20025;-35
2024/02/11 08:15:12;;;;;;;15.02;8.98;;;9.80;94.50;;;;;;5071411;28;20046;-37
2024/02/11 08:17:40;;;;;;;15.05;8.68;;;9.80;94.50;;;;;;5070867;28;20090;-36
2024/02/11 08:20:07;;;;;;;12.85;8.63;;;9.80;94.50;;;;;;5071400;28;20468;-37
2024/02/11 08:22:36;;;;;;;15.40;8.20;;;9.80;94.50;;;;;;5069911;28;20021;-38
2024/02/11 08:25:07;;;;;;;16.52;8.35;;;9.80;94.40;;;;;;5071120;28;20040;-37
2024/02/11 08:27:37;;;;;;;15.52;8.27;;;9.70;94.20;;;;;;5070859;28;20024;-36
2024/02/11 08:30:11;;;;;;;15.25;7.32;;;9.70;94.20;;;;;;5071298;28;20434;-37
2024/02/11 08:32:38;;;;;;;14.43;7.65;;;9.70;94.20;;;;;;5071189;28;20455;-37
2024/02/11 08:35:08;;;;;;;14.02;8.02;;;9.70;94.20;;;;;;5070862;28;20040;-37
2024/02/11 08:37:37;;;;;;;13.90;7.50;;;9.70;94.20;;;;;;5070820;28;20074;-38
2024/02/11 08:40:03;;;;;;;15.85;7.38;;;9.60;94.10;;;;;;5074971;28;20016;-38
2024/02/11 08:42:29;;;;;;;15.15;6.85;;;9.60;94.10;;;;;;5074501;28;20024;-38
2024/02/11 08:44:55;;;;;;;13.75;6.30;;;9.70;94.20;;;;;;5074530;28;20055;-37
2024/02/11 08:47:22;;;;;;;12.13;6.45;;;9.70;94.10;;;;;;5074239;28;20031;-37
2024/02/11 08:49:48;;;;;;;15.25;7.05;;;9.70;94.10;;;;;;5074380;28;20025;-37
2024/02/11 08:52:14;;;;;;;14.68;7.63;;;9.80;94.10;;;;;;5074693;28;20029;-37
2024/02/11 08:54:40;;;;;;;13.52;7.85;;;9.90;94.10;;;;;;5074109;28;20043;-36
2024/02/11 08:57:07;;;;;;;14.25;7.63;;;9.90;94.00;;;;;;5074023;28;20017;-37
2024/02/11 08:59:32;;;;;;;15.85;8.00;;;10.00;94.30;;;;;;5073912;28;20112;-36
2024/02/11 09:01:59;;;;;;;15.90;8.25;;;10.00;93.90;;;;;;5073915;28;20092;-35
2024/02/11 09:04:27;;;;;;;14.45;7.65;;;10.00;93.80;;;;;;5074451;28;20036;-37
2024/02/11 09:06:57;;;;;;;14.00;7.82;;;10.00;93.80;;;;;;5074112;28;20032;-37
2024/02/11 09:09:26;;;;;;;14.27;8.30;;;10.00;93.80;;;;;;5073818;28;20043;-36
2024/02/11 09:11:54;;;;;;;17.50;8.70;;;10.00;93.80;;;;;;5073014;28;20483;-37
2024/02/11 09:14:20;;;;;;;15.20;8.50;;;10.10;93.80;;;;;;5073859;28;20488;-35
2024/02/11 09:16:46;;;;;;;12.73;8.15;;;10.10;93.80;;;;;;5072535;28;20025;-37
2024/02/11 09:19:12;;;;;;;14.82;8.65;;;10.10;93.80;;;;;;5073773;28;20107;-41
2024/02/11 09:21:37;;;;;;;15.10;9.07;;;10.20;93.80;;;;;;5074000;28;20461;-36
2024/02/11 09:24:03;;;;;;;17.50;9.77;;;10.20;93.70;;;;;;5073951;28;20072;-38
2024/02/11 09:26:29;;;;;;;21.50;10.02;;;10.20;93.70;;;;;;5073823;28;20436;-37
2024/02/11 09:28:56;;;;;;;13.50;9.65;;;10.30;93.70;;;;;;5074050;28;20465;-38
2024/02/11 09:31:22;;;;;;;19.45;11.90;;;10.30;93.70;;;;;;5073693;28;20445;-36
2024/02/11 09:33:47;;;;;;;17.73;10.80;;;10.30;93.60;;;;;;5073729;28;20021;-35
2024/02/11 09:36:13;;;;;;;15.45;10.60;;;10.40;93.60;;;;;;5073524;28;20036;-41
2024/02/11 09:38:38;;;;;;;19.63;11.02;;;10.40;93.60;;;;;;5073719;28;20556;-36
2024/02/11 09:41:06;;;;;;;18.77;10.82;;;10.40;93.50;;;;;;5073348;28;20021;-38
2024/02/11 09:43:31;;;;;;;16.65;10.32;;;10.40;93.50;;;;;;5073474;28;20025;-37
2024/02/11 09:46:00;;;;;;;17.88;11.02;;;10.50;93.80;;;;;;5073711;28;20056;-37
2024/02/11 09:48:26;;;;;;;18.20;10.27;;;10.50;93.50;;;;;;5073345;28;20020;-39
2024/02/11 09:50:55;;;;;;;18.02;10.07;;;10.60;93.50;;;;;;5072659;28;20052;-36
2024/02/11 09:53:21;;;;;;;14.02;9.27;;;10.60;93.40;;;;;;5073527;28;20394;-36
2024/02/11 09:55:47;;;;;;;14.93;9.60;;;10.70;93.40;;;;;;5073209;28;20020;-38
2024/02/11 09:58:12;;;;;;;18.45;9.85;;;10.70;93.40;;;;;;5072937;28;20031;-37
2024/02/11 10:00:38;;;;;;;17.48;9.80;;;10.70;93.30;;;;;;5073491;28;20598;-37
2024/02/11 10:03:07;;;;;;;13.38;9.02;;;10.70;93.20;;;;;;5073305;28;20032;-37
2024/02/11 10:05:35;;;;;;;15.27;9.75;;;10.70;93.20;;;;;;5072898;28;20070;-37
2024/02/11 10:08:13;;;;;;;18.48;10.18;;;10.80;93.30;;;;;;5072774;28;20043;-39
2024/02/11 10:10:39;;;;;;;14.63;9.48;;;10.80;93.30;;;;;;5073184;28;20029;-39
2024/02/11 10:13:08;;;;;;;16.40;9.25;;;10.80;93.30;;;;;;5072742;28;20540;-43
2024/02/11 10:15:40;;;;;;;17.67;10.25;;;10.80;93.20;;;;;;5073065;28;20020;-38
2024/02/11 10:18:06;;;;;;;13.73;9.27;;;10.90;93.10;;;;;;5072992;28;20078;-38
2024/02/11 10:20:35;;;;;;;18.98;9.82;;;10.90;93.10;;;;;;5072731;28;20312;-38
2024/02/11 10:23:03;;;;;;;16.30;9.55;;;10.90;93.10;;;;;;5072917;28;20461;-36
2024/02/11 10:25:33;;;;;;;19.52;10.70;;;10.80;93.00;;;;;;5072848;28;20092;-36
2024/02/11 10:28:00;;;;;;;16.25;10.05;;;10.80;93.00;;;;;;5072479;28;20515;-35
2024/02/11 10:30:27;;;;;;;15.57;9.57;;;10.80;93.00;;;;;;5072510;28;20040;-39
2024/02/11 10:32:58;;;;;;;19.10;10.27;;;10.80;93.10;;;;;;5072430;28;20025;-38
2024/02/11 10:35:26;;;;;;;15.88;10.23;;;10.90;93.10;;;;;;5072161;28;20501;-37
2024/02/11 10:37:52;;;;;;;15.65;10.23;;;10.90;93.00;;;;;;5072419;28;20020;-36
2024/02/11 10:40:19;;;;;;;17.23;10.73;;;10.90;93.00;;;;;;5072430;28;20468;-38
2024/02/11 10:42:46;;;;;;;20.88;11.77;;;10.90;93.00;;;;;;5072267;28;20028;-36
2024/02/11 10:45:11;;;;;;;18.23;11.60;;;11.00;92.90;;;;;;5072575;28;20017;-37
2024/02/11 10:47:37;;;;;;;19.67;10.68;;;11.00;92.90;;;;;;5072432;28;20380;-36
2024/02/11 10:50:06;;;;;;;19.15;11.63;;;11.00;92.90;;;;;;5072159;28;20032;-38
2024/02/11 10:52:36;;;;;;;15.20;10.48;;;11.10;92.90;;;;;;5072339;28;20389;-35
2024/02/11 10:55:04;;;;;;;19.45;12.50;;;11.10;92.90;;;;;;5072167;28;20074;-37
2024/02/11 10:57:34;;;;;;;20.15;11.93;;;11.10;92.80;;;;;;5071814;28;20025;-36
2024/02/11 11:00:01;;;;;;;18.50;12.10;;;11.10;92.70;;;;;;5072018;28;20488;-36
2024/02/11 11:02:31;;;;;;;19.13;11.95;;;11.20;92.70;;;;;;5070843;28;20370;-38
2024/02/11 11:05:03;;;;;;;22.92;12.73;;;11.10;92.60;;;;;;5071752;28;20032;-38
2024/02/11 11:07:32;;;;;;;21.88;11.48;;;11.10;92.60;;;;;;5072088;28;20020;-38
2024/02/11 11:09:57;;;;;;;16.45;10.45;;;11.10;92.70;;;;;;5071878;28;20103;-36
2024/02/11 11:12:24;;;;;;;15.80;10.30;;;11.00;92.60;;;;;;5071737;28;20048;-35
2024/02/11 11:14:57;;;;;;;18.40;10.45;;;11.00;92.60;;;;;;5072062;28;20044;-36
2024/02/11 11:17:22;;;;;;;13.65;9.32;;;11.00;92.60;;;;;;5071731;28;20454;-37
2024/02/11 11:19:52;;;;;;;20.90;10.50;;;11.00;92.60;;;;;;5071617;28;20095;-45
2024/02/11 11:22:28;;;;;;;16.45;9.30;;;11.00;92.60;;;;;;5072160;28;20322;-35
2024/02/11 11:24:57;;;;;;;15.80;8.13;;;11.00;92.60;;;;;;5071846;28;20149;-36
2024/02/11 11:27:24;;;;;;;17.98;9.18;;;11.00;92.60;;;;;;5071639;28;20047;-38
2024/02/11 11:29:52;;;;;;;14.50;8.02;;;11.00;92.60;;;;;;5071479;28;20021;-37
2024/02/11 11:32:22;;;;;;;17.00;8.50;;;11.00;92.60;;;;;;5071430;28;20024;-37
2024/02/11 11:34:53;;;;;;;18.75;8.75;;;11.00;92.50;;;;;;5071412;28;20040;-38
2024/02/11 11:37:19;;;;;;;14.55;7.68;;;11.00;92.50;;;;;;5071462;28;20033;-47
2024/02/11 11:39:45;;;;;;;24.40;8.93;;;11.00;92.50;;;;;;5071429;28;20354;-41
2024/02/11 11:42:12;;;;;;;14.68;7.30;;;11.00;92.30;;;;;;5071314;28;20027;-37
2024/02/11 11:44:38;;;;;;;14.25;7.18;;;10.90;92.30;;;;;;5071599;28;20016;-39
2024/02/11 11:47:05;;;;;;;20.00;7.72;;;10.90;92.40;;;;;;5072298;28;20032;-38
2024/02/11 11:49:36;;;;;;;18.50;8.18;;;10.90;92.40;;;;;;5071823;28;20031;-40
2024/02/11 11:52:03;;;;;;;13.93;7.18;;;10.90;92.50;;;;;;5071460;28;20025;-37
2024/02/11 11:54:29;;;;;;;11.63;7.10;;;10.90;92.50;;;;;;5071604;28;20107;-38
2024/02/11 11:56:58;;;;;;;17.17;7.45;;;10.90;92.50;;;;;;5071721;28;20517;-39
2024/02/11 11:59:24;;;;;;;12.02;6.88;;;11.00;92.50;;;;;;5071449;28;20067;-37
2024/02/11 12:01:51;;;;;;;14.35;7.63;;;11.00;92.50;;;;;;5071353;28;20024;-40
2024/02/11 12:04:17;;;;;;;14.00;6.63;;;11.00;92.40;;;;;;5071152;28;20028;-45
2024/02/11 12:06:43;;;;;;;13.07;6.60;;;11.10;92.40;;;;;;5071209;28;20519;-37
2024/02/11 12:09:09;;;;;;;10.77;7.15;;;11.10;92.40;;;;;;5071172;28;20052;-40
2024/02/11 12:11:35;;;;;;;14.88;6.72;;;11.10;92.40;;;;;;5070980;28;20052;-38
2024/02/11 12:14:03;;;;;;;15.48;8.05;;;11.10;92.40;;;;;;5074062;28;20035;-37
2024/02/11 12:16:28;;;;;;;12.85;6.90;;;11.10;92.30;;;;;;5074759;28;20033;-38
2024/02/11 12:18:54;;;;;;;19.30;7.65;;;11.10;92.40;;;;;;5075033;28;20031;-37
2024/02/11 12:21:20;;;;;;;13.15;7.40;;;11.10;92.30;;;;;;5074936;28;20070;-37
2024/02/11 12:23:46;;;;;;;14.25;6.93;;;11.10;92.30;;;;;;5075184;28;20012;-39
2024/02/11 12:26:19;;;;;;;12.27;6.60;;;11.10;92.30;;;;;;5075197;28;20474;-38
2024/02/11 12:28:49;;;;;;;13.80;6.63;;;11.10;92.60;;;;;;5074567;28;20016;-38
2024/02/11 12:31:16;;;;;;;15.20;7.32;;;11.10;92.20;;;;;;5073607;28;20074;-38
2024/02/11 12:33:42;;;;;;;15.10;6.68;;;11.00;92.20;;;;;;5074514;28;20016;-38
2024/02/11 12:36:13;;;;;;;12.93;6.88;;;11.00;92.20;;;;;;5074770;28;20028;-38
2024/02/11 12:38:42;;;;;;;14.75;6.97;;;11.00;92.20;;;;;;5074412;28;20017;-39
2024/02/11 12:41:12;;;;;;;14.77;6.53;;;11.10;92.30;;;;;;5074839;28;20388;-38